Time;durP1;ratioP1;P1;durP2;ratioP2;P2;SDS_P1;SDS_P2;PMS_P1;PMS_P2;Temp;Humidity;BMP_temperature;BMP_pressure;BME280_temperature;BME280_humidity;BME280_pressure;Samples;Min_cycle;Max_cycle;Signal;HPM_P1;HPM_P2
2021/07/22 00:00:27;;;;;;;13.80;9.30;;;16.50;99.90;;;;;;5035283;28;20553;-85
2021/07/22 00:03:18;;;;;;;14.02;9.07;;;16.50;99.90;;;;;;5018033;28;20434;-86
2021/07/22 00:05:44;;;;;;;12.43;8.52;;;16.40;99.90;;;;;;4999529;28;20073;-85
2021/07/22 00:08:12;;;;;;;12.40;8.80;;;16.40;99.90;;;;;;5028797;28;20072;-86
2021/07/22 00:10:39;;;;;;;14.43;9.68;;;16.40;99.90;;;;;;5028743;28;20460;-85
2021/07/22 00:13:05;;;;;;;15.13;9.43;;;16.40;99.90;;;;;;5004235;28;20054;-86
2021/07/22 00:15:33;;;;;;;13.93;9.23;;;16.40;99.90;;;;;;4978469;28;20057;-85
2021/07/22 00:18:04;;;;;;;15.45;9.90;;;16.40;99.90;;;;;;5053235;28;20553;-85
2021/07/22 00:20:33;;;;;;;15.93;9.43;;;16.40;99.90;;;;;;5069742;28;20048;-85
2021/07/22 00:22:59;;;;;;;14.57;9.85;;;16.50;99.90;;;;;;5087147;28;20039;-85
2021/07/22 00:25:25;;;;;;;14.55;9.45;;;16.60;99.90;;;;;;5110033;28;20388;-85
2021/07/22 00:27:53;;;;;;;16.88;10.23;;;16.60;99.90;;;;;;5109515;28;20053;-85
2021/07/22 00:30:22;;;;;;;17.65;10.85;;;16.70;99.90;;;;;;5088423;28;20055;-85
2021/07/22 00:32:49;;;;;;;15.00;10.57;;;16.70;99.90;;;;;;5065424;28;20055;-85
2021/07/22 00:35:38;;;;;;;15.98;10.82;;;16.80;99.90;;;;;;5024620;28;20130;-84
2021/07/22 00:38:08;;;;;;;14.30;10.73;;;16.80;99.90;;;;;;5046328;28;20127;-84
2021/07/22 00:40:46;;;;;;;15.27;10.75;;;16.70;99.90;;;;;;5040192;28;20125;-84
2021/07/22 00:43:11;;;;;;;17.05;11.15;;;16.70;99.90;;;;;;5011990;28;20056;-84
2021/07/22 00:45:37;;;;;;;;;;;16.70;99.90;;;;;;5031258;28;20045;-84
2021/07/22 00:48:06;;;;;;;17.27;11.20;;;16.70;99.90;;;;;;5035856;28;20380;-83
2021/07/22 00:50:33;;;;;;;18.52;11.70;;;16.60;99.90;;;;;;5015760;28;20041;-85
2021/07/22 00:52:59;;;;;;;15.98;11.05;;;16.60;99.90;;;;;;5042625;28;20048;-84
2021/07/22 00:55:26;;;;;;;;;;;16.60;99.90;;;;;;5101706;28;20040;-84
2021/07/22 00:57:53;;;;;;;15.15;10.18;;;16.50;99.90;;;;;;5077903;28;19919;-83
2021/07/22 01:00:20;;;;;;;17.65;11.15;;;16.50;99.90;;;;;;5052826;28;20044;-84
2021/07/22 01:02:47;;;;;;;17.98;11.10;;;16.50;99.90;;;;;;5087895;28;20059;-84
2021/07/22 01:05:13;;;;;;;17.00;10.93;;;16.60;99.90;;;;;;5072564;28;20082;-85
2021/07/22 01:07:40;;;;;;;15.75;10.75;;;16.60;99.90;;;;;;5074881;28;20501;-83
2021/07/22 01:10:08;;;;;;;16.83;10.77;;;16.50;99.90;;;;;;5077747;28;20475;-84
2021/07/22 01:12:35;;;;;;;18.27;10.80;;;16.50;99.90;;;;;;5074292;28;20131;-84
2021/07/22 01:15:00;;;;;;;17.48;10.23;;;16.50;99.90;;;;;;5091643;28;20466;-83
2021/07/22 01:17:45;;;;;;;;;;;16.50;99.90;;;;;;5098707;28;20484;-84
2021/07/22 01:20:19;;;;;;;16.85;10.77;;;16.50;99.90;;;;;;5098384;28;19916;-84
2021/07/22 01:22:46;;;;;;;15.75;10.23;;;16.60;99.90;;;;;;5092893;28;20043;-85
2021/07/22 01:25:13;;;;;;;18.67;11.60;;;16.60;99.90;;;;;;5082267;28;20032;-85
2021/07/22 01:27:43;;;;;;;17.58;11.00;;;16.60;99.90;;;;;;5097562;28;20119;-85
2021/07/22 01:30:14;;;;;;;16.92;10.98;;;16.70;99.90;;;;;;5095305;28;20043;-84
2021/07/22 01:32:52;;;;;;;15.75;11.07;;;16.70;99.90;;;;;;5114421;28;20132;-86
2021/07/22 01:35:18;;;;;;;15.60;10.95;;;16.70;99.90;;;;;;5118849;28;20063;-86
2021/07/22 01:37:49;;;;;;;16.58;11.00;;;16.70;99.90;;;;;;5102954;28;20105;-87
2021/07/22 01:40:21;;;;;;;18.73;11.48;;;16.70;99.90;;;;;;5103833;28;20359;-87
2021/07/22 01:42:50;;;;;;;16.50;10.77;;;16.80;99.90;;;;;;5095415;28;20035;-86
2021/07/22 01:45:16;;;;;;;19.60;11.93;;;16.80;99.90;;;;;;5093125;28;20036;-87
2021/07/22 01:47:46;;;;;;;19.10;11.90;;;16.80;99.90;;;;;;5074026;28;20052;-87
2021/07/22 01:50:13;;;;;;;17.92;11.90;;;16.80;99.90;;;;;;5076804;28;20063;-87
2021/07/22 01:52:48;;;;;;;18.15;12.23;;;16.80;99.90;;;;;;5073767;28;20093;-86
2021/07/22 01:55:16;;;;;;;19.50;11.77;;;16.80;99.90;;;;;;5081324;28;20102;-86
2021/07/22 01:57:44;;;;;;;18.00;11.93;;;16.80;99.90;;;;;;5080035;28;20130;-86
2021/07/22 02:00:14;;;;;;;17.67;11.75;;;16.70;99.90;;;;;;5076252;28;20104;-87
2021/07/22 02:02:44;;;;;;;16.13;11.60;;;16.70;99.90;;;;;;5091501;28;20048;-85
2021/07/22 02:05:13;;;;;;;20.15;11.73;;;16.70;99.90;;;;;;5115450;28;20027;-85
2021/07/22 02:07:39;;;;;;;;;;;16.70;99.90;;;;;;5063089;28;20053;-85
2021/07/22 02:10:05;;;;;;;16.05;10.70;;;16.70;99.90;;;;;;5113638;28;19923;-85
2021/07/22 02:12:32;;;;;;;17.52;11.27;;;16.70;99.90;;;;;;5114106;28;20032;-85
2021/07/22 02:14:58;;;;;;;14.30;10.10;;;16.70;99.90;;;;;;5096879;28;20036;-85
2021/07/22 02:17:26;;;;;;;17.80;11.35;;;16.70;99.90;;;;;;5090815;28;20044;-85
2021/07/22 02:19:52;;;;;;;15.93;10.48;;;16.70;99.90;;;;;;5107300;28;20032;-85
2021/07/22 02:22:18;;;;;;;15.25;10.50;;;16.80;99.90;;;;;;5100772;28;20058;-85
2021/07/22 02:24:43;;;;;;;;;;;16.70;99.90;;;;;;5078177;28;20047;-85
2021/07/22 02:27:09;;;;;;;13.80;9.07;;;16.70;99.90;;;;;;5076529;28;19983;-84
2021/07/22 02:29:35;;;;;;;;;;;16.80;99.90;;;;;;5093301;28;20040;-83
2021/07/22 02:32:03;;;;;;;14.13;8.98;;;16.70;99.90;;;;;;5088111;28;20417;-84
2021/07/22 02:34:29;;;;;;;14.00;9.80;;;16.70;99.90;;;;;;5108143;28;20067;-83
2021/07/22 02:36:56;;;;;;;15.05;9.70;;;16.70;99.90;;;;;;5095530;28;20070;-83
2021/07/22 02:39:22;;;;;;;14.98;9.95;;;16.70;99.90;;;;;;5074600;28;20119;-84
2021/07/22 02:41:47;;;;;;;14.02;9.45;;;16.80;99.90;;;;;;5076687;28;20090;-83
2021/07/22 02:44:13;;;;;;;;;;;16.80;99.90;;;;;;5093082;28;20449;-83
2021/07/22 02:46:40;;;;;;;15.27;8.88;;;16.70;99.90;;;;;;5095706;28;19916;-83
2021/07/22 02:49:09;;;;;;;12.93;8.55;;;16.70;99.90;;;;;;5078977;28;20088;-85
2021/07/22 02:51:42;;;;;;;12.65;8.90;;;16.70;99.90;;;;;;5068662;28;20028;-85
2021/07/22 02:54:12;;;;;;;13.40;8.95;;;16.70;99.90;;;;;;5074601;28;20040;-85
2021/07/22 02:56:39;;;;;;;14.05;9.68;;;16.70;99.90;;;;;;5096097;28;20067;-84
2021/07/22 02:59:09;;;;;;;15.60;9.30;;;16.80;99.90;;;;;;5111042;28;20054;-85
2021/07/22 03:01:35;;;;;;;14.05;10.18;;;16.70;99.90;;;;;;5078156;28;20083;-85
2021/07/22 03:04:02;;;;;;;14.40;9.65;;;16.70;99.90;;;;;;5055822;28;20047;-85
2021/07/22 03:06:30;;;;;;;17.23;9.68;;;16.70;99.90;;;;;;5086935;28;20039;-85
2021/07/22 03:08:56;;;;;;;14.77;8.77;;;16.70;99.90;;;;;;5087305;28;20047;-85
2021/07/22 03:11:22;;;;;;;13.05;8.32;;;16.70;99.90;;;;;;5079156;28;20043;-85
2021/07/22 03:13:48;;;;;;;13.38;8.18;;;16.60;99.90;;;;;;5058220;28;20079;-86
2021/07/22 03:16:14;;;;;;;;;;;16.60;99.90;;;;;;5095172;28;20131;-85
2021/07/22 03:18:40;;;;;;;13.93;8.70;;;16.50;99.90;;;;;;5077757;28;19916;-85
2021/07/22 03:21:06;;;;;;;;;;;16.50;99.90;;;;;;5086345;28;20125;-86
2021/07/22 03:23:35;;;;;;;13.60;8.00;;;16.50;99.90;;;;;;5078830;28;20412;-85
2021/07/22 03:26:02;;;;;;;13.18;8.00;;;16.50;99.90;;;;;;5097766;28;20044;-86
2021/07/22 03:28:28;;;;;;;12.18;8.38;;;16.40;99.90;;;;;;5066065;28;20067;-87
2021/07/22 03:30:53;;;;;;;;;;;16.50;99.90;;;;;;5093512;28;20047;-86
2021/07/22 03:33:20;;;;;;;13.05;7.50;;;16.40;99.90;;;;;;5086106;28;19923;-86
2021/07/22 03:35:54;;;;;;;14.93;8.30;;;16.40;99.90;;;;;;5087351;28;20043;-85
2021/07/22 03:38:21;;;;;;;12.80;8.10;;;16.40;99.90;;;;;;5106334;28;20039;-85
2021/07/22 03:40:46;;;;;;;12.18;8.32;;;16.30;99.90;;;;;;5099647;28;20119;-85
2021/07/22 03:43:13;;;;;;;11.55;7.60;;;16.50;99.90;;;;;;5073025;28;20481;-86
2021/07/22 03:46:04;;;;;;;13.35;7.95;;;16.30;99.90;;;;;;5022105;28;20085;-86
2021/07/22 03:48:34;;;;;;;11.57;7.70;;;16.30;99.90;;;;;;5025193;28;20125;-85
2021/07/22 03:51:01;;;;;;;12.00;8.40;;;16.30;99.90;;;;;;5031617;28;20049;-86
2021/07/22 03:53:32;;;;;;;11.82;8.27;;;16.30;99.90;;;;;;5029308;28;20045;-86
2021/07/22 03:56:00;;;;;;;10.85;7.35;;;16.30;99.90;;;;;;5047002;28;20041;-86
2021/07/22 03:58:26;;;;;;;12.38;7.47;;;16.30;99.90;;;;;;5043282;28;20057;-86
2021/07/22 04:00:54;;;;;;;12.20;8.13;;;16.30;99.90;;;;;;5020051;28;20100;-87
2021/07/22 04:03:21;;;;;;;13.73;8.00;;;16.30;99.90;;;;;;5039349;28;20079;-85
2021/07/22 04:05:47;;;;;;;11.38;7.18;;;16.30;99.90;;;;;;5022034;28;20056;-85
2021/07/22 04:08:14;;;;;;;9.88;7.32;;;16.30;99.90;;;;;;5032936;28;20123;-86
2021/07/22 04:10:39;;;;;;;11.65;7.18;;;16.40;99.90;;;;;;5071869;28;20047;-86
2021/07/22 04:13:05;;;;;;;;;;;16.30;99.90;;;;;;5103326;28;20035;-87
2021/07/22 04:15:31;;;;;;;11.32;7.40;;;16.30;99.90;;;;;;5108341;28;19916;-85
2021/07/22 04:17:57;;;;;;;;;;;16.30;99.90;;;;;;5083705;28;20075;-86
2021/07/22 04:20:24;;;;;;;12.23;7.57;;;16.30;99.90;;;;;;5091518;28;20002;-86
2021/07/22 04:22:52;;;;;;;10.10;6.97;;;16.30;99.90;;;;;;5098001;28;20104;-86
2021/07/22 04:25:18;;;;;;;12.68;7.32;;;16.30;99.90;;;;;;5094277;28;20092;-86
2021/07/22 04:27:44;;;;;;;11.98;7.88;;;16.30;99.90;;;;;;5110292;28;20115;-86
2021/07/22 04:30:10;;;;;;;;;;;16.40;99.90;;;;;;5089338;28;20075;-86
2021/07/22 04:32:36;;;;;;;12.20;6.68;;;16.30;99.90;;;;;;5101589;28;19916;-85
2021/07/22 04:35:03;;;;;;;10.13;7.40;;;16.40;99.90;;;;;;5104759;28;20032;-85
2021/07/22 04:37:29;;;;;;;9.98;7.13;;;16.40;99.90;;;;;;5094877;28;20077;-85
2021/07/22 04:39:55;;;;;;;9.75;6.85;;;16.40;99.90;;;;;;5107337;28;20467;-84
2021/07/22 04:42:20;;;;;;;;;;;16.50;99.90;;;;;;5090360;28;20469;-85
2021/07/22 04:44:46;;;;;;;11.50;6.57;;;16.40;99.90;;;;;;5112381;28;19926;-84
2021/07/22 04:47:12;;;;;;;;;;;16.50;99.90;;;;;;5103494;28;20062;-85
2021/07/22 04:49:37;;;;;;;11.65;6.90;;;16.50;99.90;;;;;;5111035;28;19989;-85
2021/07/22 04:52:03;;;;;;;;;;;16.50;99.90;;;;;;5110597;28;20058;-85
2021/07/22 04:54:29;;;;;;;18.00;7.13;;;16.50;99.90;;;;;;5110072;28;20288;-85
2021/07/22 04:56:55;;;;;;;;;;;16.60;99.90;;;;;;5111065;28;20046;-85
2021/07/22 04:59:20;;;;;;;9.70;6.47;;;16.60;99.90;;;;;;5108969;28;19916;-85
2021/07/22 05:01:46;;;;;;;;;;;16.60;99.90;;;;;;5087934;28;20031;-85
2021/07/22 05:04:18;;;;;;;9.90;6.25;;;16.60;99.90;;;;;;5086359;28;19919;-85
2021/07/22 05:06:44;;;;;;;9.80;6.15;;;16.60;99.90;;;;;;5104216;28;20032;-83
2021/07/22 05:09:10;;;;;;;;;;;16.70;99.90;;;;;;5108361;28;20039;-84
2021/07/22 05:11:36;;;;;;;8.65;5.82;;;16.70;99.90;;;;;;5115458;28;19930;-84
2021/07/22 05:14:01;;;;;;;;;;;16.80;99.90;;;;;;5112192;28;20044;-84
2021/07/22 05:16:27;;;;;;;8.35;5.90;;;16.80;99.90;;;;;;5115862;28;20299;-84
2021/07/22 05:18:53;;;;;;;7.88;5.40;;;16.90;99.90;;;;;;5090434;28;20043;-84
2021/07/22 05:21:22;;;;;;;;;;;16.90;99.90;;;;;;5107401;28;20042;-84
2021/07/22 05:23:47;;;;;;;7.90;5.45;;;17.00;99.90;;;;;;5114350;28;19954;-84
2021/07/22 05:26:13;;;;;;;;;;;17.00;99.90;;;;;;5115341;28;20066;-85
2021/07/22 05:28:40;;;;;;;10.05;5.57;;;17.10;99.90;;;;;;5081264;28;19915;-84
2021/07/22 05:31:07;;;;;;;11.30;5.50;;;17.20;99.90;;;;;;5111680;28;20036;-84
2021/07/22 05:33:33;;;;;;;7.47;5.32;;;17.30;99.90;;;;;;5115177;28;20082;-85
2021/07/22 05:36:09;;;;;;;9.05;5.60;;;17.40;99.90;;;;;;5112587;28;20044;-84
2021/07/22 05:38:36;;;;;;;9.43;5.13;;;17.40;99.90;;;;;;5115370;28;20150;-84
2021/07/22 05:41:04;;;;;;;9.43;5.85;;;17.50;99.90;;;;;;5111619;28;20043;-84
2021/07/22 05:43:30;;;;;;;9.05;5.50;;;17.50;99.90;;;;;;5115059;28;20032;-85
2021/07/22 05:45:56;;;;;;;8.30;5.03;;;17.60;99.90;;;;;;5110288;28;20429;-84
2021/07/22 05:48:22;;;;;;;8.70;5.68;;;17.70;99.90;;;;;;5113418;28;20035;-84
2021/07/22 05:50:51;;;;;;;;;;;17.80;99.90;;;;;;5112635;28;20378;-84
2021/07/22 05:53:18;;;;;;;9.20;5.78;;;17.80;99.90;;;;;;5112242;28;19922;-84
2021/07/22 05:55:44;;;;;;;9.02;5.60;;;17.90;99.90;;;;;;5103607;28;20036;-84
2021/07/22 05:58:10;;;;;;;;;;;17.90;99.90;;;;;;5106252;28;20126;-84
2021/07/22 06:00:36;;;;;;;8.15;4.88;;;17.90;99.90;;;;;;5114999;28;20028;-84
2021/07/22 06:03:05;;;;;;;;;;;17.90;99.90;;;;;;5117451;28;20122;-83
2021/07/22 06:05:32;;;;;;;9.13;5.28;;;18.00;99.90;;;;;;5106147;28;19975;-83
2021/07/22 06:08:02;;;;;;;11.68;5.40;;;18.10;99.90;;;;;;5116664;28;20503;-84
2021/07/22 06:10:28;;;;;;;8.20;5.28;;;18.10;99.90;;;;;;5109698;28;20053;-84
2021/07/22 06:12:54;;;;;;;;;;;18.20;99.90;;;;;;5104860;28;20019;-83
2021/07/22 06:15:20;;;;;;;7.18;5.15;;;18.20;99.90;;;;;;5129548;28;20368;-84
2021/07/22 06:17:46;;;;;;;7.80;5.00;;;18.30;99.90;;;;;;5097030;28;20040;-84
2021/07/22 06:20:12;;;;;;;;;;;18.30;99.90;;;;;;5108059;28;20039;-83
2021/07/22 06:22:38;;;;;;;8.27;5.47;;;18.30;99.90;;;;;;5110869;28;19927;-83
2021/07/22 06:25:06;;;;;;;7.72;5.55;;;18.40;99.90;;;;;;5112039;28;20039;-85
2021/07/22 06:27:32;;;;;;;7.10;5.00;;;18.40;99.90;;;;;;5103813;28;20043;-84
2021/07/22 06:30:01;;;;;;;;;;;18.50;99.90;;;;;;5111424;28;20134;-83
2021/07/22 06:32:27;;;;;;;8.05;4.97;;;18.50;99.90;;;;;;5084938;28;19926;-83
2021/07/22 06:34:53;;;;;;;6.72;5.30;;;18.60;99.90;;;;;;5109564;28;20058;-84
2021/07/22 06:37:18;;;;;;;;;;;18.80;99.90;;;;;;5107454;28;20123;-84
2021/07/22 06:39:44;;;;;;;9.73;4.65;;;18.80;99.90;;;;;;5101039;28;19923;-84
2021/07/22 06:42:10;;;;;;;;;;;18.80;99.90;;;;;;5103262;28;20038;-83
2021/07/22 06:44:36;;;;;;;7.72;4.95;;;18.80;99.90;;;;;;5102059;28;19991;-84
2021/07/22 06:47:02;;;;;;;;;;;18.80;99.90;;;;;;5106705;28;20086;-84
2021/07/22 06:49:28;;;;;;;8.45;5.03;;;18.90;99.90;;;;;;5108613;28;20025;-83
2021/07/22 06:51:53;;;;;;;;;;;18.90;99.90;;;;;;5080815;28;20064;-84
2021/07/22 06:54:20;;;;;;;7.22;4.38;;;18.80;99.90;;;;;;5116080;28;20269;-84
2021/07/22 06:56:47;;;;;;;7.47;4.68;;;18.90;99.90;;;;;;5113498;28;20040;-84
2021/07/22 06:59:13;;;;;;;5.35;4.00;;;19.10;99.90;;;;;;5114287;28;20042;-85
2021/07/22 07:01:39;;;;;;;5.78;3.92;;;19.30;99.90;;;;;;5112344;28;20032;-84
2021/07/22 07:04:06;;;;;;;5.50;4.20;;;19.50;99.90;;;;;;5080565;28;20553;-86
2021/07/22 07:06:35;;;;;;;4.97;3.75;;;19.60;99.90;;;;;;5091227;28;20036;-84
2021/07/22 07:09:04;;;;;;;6.25;3.60;;;19.60;99.90;;;;;;5107369;28;20039;-82
2021/07/22 07:11:30;;;;;;;5.53;4.15;;;19.60;99.90;;;;;;5076423;28;20036;-83
2021/07/22 07:13:56;;;;;;;7.85;4.10;;;19.50;99.90;;;;;;5082555;28;20116;-82
2021/07/22 07:16:21;;;;;;;;;;;19.60;99.90;;;;;;5112734;28;20377;-83
2021/07/22 07:18:47;;;;;;;5.85;3.53;;;19.60;99.90;;;;;;5078106;28;20330;-81
2021/07/22 07:21:13;;;;;;;;;;;19.60;99.90;;;;;;5104091;28;20035;-80
2021/07/22 07:23:39;;;;;;;4.70;3.67;;;19.60;99.90;;;;;;5099125;28;19923;-81
2021/07/22 07:26:11;;;;;;;5.57;3.90;;;19.60;99.90;;;;;;5068860;28;20071;-81
2021/07/22 07:28:37;;;;;;;4.47;3.53;;;19.60;99.90;;;;;;5090391;28;20048;-83
2021/07/22 07:31:03;;;;;;;7.57;3.95;;;19.70;99.90;;;;;;5100504;28;20029;-82
2021/07/22 07:33:30;;;;;;;5.28;3.50;;;19.60;99.90;;;;;;5080989;28;20558;-82
2021/07/22 07:35:56;;;;;;;5.35;3.60;;;19.60;99.90;;;;;;5110750;28;20035;-82
2021/07/22 07:38:23;;;;;;;4.78;3.65;;;19.60;99.90;;;;;;5109644;28;20110;-83
2021/07/22 07:40:49;;;;;;;4.60;3.28;;;19.70;99.90;;;;;;5102361;28;20052;-81
2021/07/22 07:43:18;;;;;;;5.38;3.60;;;19.90;99.90;;;;;;5091999;28;20048;-84
2021/07/22 07:45:45;;;;;;;4.45;3.33;;;20.30;99.00;;;;;;5092454;28;20604;-85
2021/07/22 07:48:12;;;;;;;5.18;3.15;;;20.40;98.10;;;;;;5111308;28;20062;-85
2021/07/22 07:50:39;;;;;;;5.72;3.55;;;20.20;97.80;;;;;;5095088;28;20032;-86
2021/07/22 07:53:16;;;;;;;4.85;3.65;;;20.10;97.40;;;;;;5089532;28;20054;-84
2021/07/22 07:55:42;;;;;;;5.63;3.83;;;19.90;97.20;;;;;;5102844;28;20039;-86
2021/07/22 07:58:12;;;;;;;5.95;3.58;;;19.80;97.80;;;;;;5099026;28;20051;-85
2021/07/22 08:00:38;;;;;;;6.35;3.50;;;19.70;98.10;;;;;;5112920;28;20051;-85
2021/07/22 08:03:18;;;;;;;4.88;3.20;;;19.60;98.40;;;;;;5105555;28;20040;-85
2021/07/22 08:05:47;;;;;;;6.60;3.95;;;19.40;98.60;;;;;;5075388;28;20036;-85
2021/07/22 08:08:20;;;;;;;5.35;3.47;;;19.30;99.10;;;;;;5065247;28;20477;-85
2021/07/22 08:10:57;;;;;;;5.57;3.45;;;19.40;99.50;;;;;;5083718;28;20052;-84
2021/07/22 08:13:23;;;;;;;5.32;3.85;;;19.40;99.50;;;;;;5055491;28;20043;-85
2021/07/22 08:15:52;;;;;;;7.15;4.07;;;19.30;99.40;;;;;;5091068;28;20047;-84
2021/07/22 08:18:18;;;;;;;5.57;3.30;;;19.30;99.60;;;;;;5101930;28;20044;-84
2021/07/22 08:20:44;;;;;;;5.22;3.47;;;19.30;99.10;;;;;;5090507;28;20096;-85
2021/07/22 08:23:10;;;;;;;;;;;19.40;98.80;;;;;;5075525;28;20089;-85
2021/07/22 08:25:37;;;;;;;7.10;3.58;;;19.60;99.70;;;;;;5088113;28;20018;-85
2021/07/22 08:28:04;;;;;;;6.03;3.45;;;20.10;98.20;;;;;;5079492;28;20094;-86
2021/07/22 08:30:30;;;;;;;6.65;3.55;;;20.40;97.30;;;;;;5070446;28;20073;-84
2021/07/22 08:32:56;;;;;;;4.35;3.40;;;20.50;96.90;;;;;;5083234;28;20134;-85
2021/07/22 08:35:23;;;;;;;4.75;3.85;;;20.60;96.30;;;;;;5084642;28;20140;-86
2021/07/22 08:37:52;;;;;;;5.45;3.50;;;20.70;96.20;;;;;;5100533;28;20089;-84
2021/07/22 08:40:18;;;;;;;5.25;3.35;;;20.80;95.50;;;;;;5087382;28;20477;-84
2021/07/22 08:42:46;;;;;;;5.18;3.85;;;20.80;94.50;;;;;;5072120;28;20043;-85
2021/07/22 08:45:14;;;;;;;6.55;3.33;;;20.70;94.40;;;;;;5074482;28;20051;-85
2021/07/22 08:47:41;;;;;;;6.65;4.40;;;20.40;94.50;;;;;;5110444;28;20553;-85
2021/07/22 08:50:13;;;;;;;5.32;3.35;;;20.10;94.60;;;;;;5100245;28;20072;-86
2021/07/22 08:52:41;;;;;;;4.57;3.55;;;19.80;94.30;;;;;;5087573;28;20038;-85
2021/07/22 08:55:09;;;;;;;5.75;3.88;;;19.50;95.30;;;;;;5103495;28;20040;-86
2021/07/22 08:57:39;;;;;;;5.80;3.70;;;19.60;95.70;;;;;;5093127;28;20055;-86
2021/07/22 09:00:07;;;;;;;5.53;3.53;;;19.70;95.20;;;;;;5072428;28;20055;-85
2021/07/22 09:02:34;;;;;;;5.03;3.70;;;19.90;95.90;;;;;;5082208;28;20044;-86
2021/07/22 09:05:07;;;;;;;8.40;3.60;;;20.10;94.40;;;;;;5052621;28;20387;-85
2021/07/22 09:07:37;;;;;;;5.15;3.85;;;20.30;94.50;;;;;;5109339;28;20031;-86
2021/07/22 09:10:13;;;;;;;4.75;3.55;;;20.40;93.10;;;;;;5088894;28;20102;-86
2021/07/22 09:12:53;;;;;;;4.60;4.00;;;20.50;93.70;;;;;;5084446;28;20039;-85
2021/07/22 09:15:31;;;;;;;6.45;3.85;;;20.80;93.10;;;;;;5085413;28;20470;-85
2021/07/22 09:17:59;;;;;;;5.97;3.42;;;20.80;92.70;;;;;;5080792;28;20447;-86
2021/07/22 09:20:37;;;;;;;4.57;3.22;;;20.60;91.60;;;;;;5097087;28;20043;-83
2021/07/22 09:23:04;;;;;;;5.18;3.67;;;20.20;91.90;;;;;;5105244;28;20043;-84
2021/07/22 09:25:41;;;;;;;4.63;3.55;;;20.00;93.00;;;;;;5111273;28;20039;-85
2021/07/22 09:28:07;;;;;;;5.28;3.97;;;19.90;93.10;;;;;;5110134;28;20067;-85
2021/07/22 09:30:34;;;;;;;5.88;3.80;;;19.70;92.80;;;;;;5101629;28;20093;-85
2021/07/22 09:33:00;;;;;;;5.10;3.90;;;19.60;93.40;;;;;;5086523;28;20056;-83
2021/07/22 09:35:27;;;;;;;5.32;4.05;;;19.60;94.40;;;;;;5076345;28;20123;-84
2021/07/22 09:37:54;;;;;;;6.97;4.00;;;19.70;94.50;;;;;;5084382;28;20063;-85
2021/07/22 09:40:26;;;;;;;4.85;3.92;;;20.10;92.10;;;;;;5085039;28;20342;-85
2021/07/22 09:42:54;;;;;;;5.72;3.92;;;20.20;91.30;;;;;;5081675;28;20036;-85
2021/07/22 09:45:25;;;;;;;6.88;3.88;;;20.50;91.00;;;;;;5083020;28;20028;-84
2021/07/22 09:47:55;;;;;;;5.78;3.70;;;20.80;90.30;;;;;;5088240;28;20044;-84
2021/07/22 09:50:22;;;;;;;7.18;3.78;;;21.00;90.10;;;;;;5091664;28;20470;-85
2021/07/22 09:53:05;;;;;;;8.32;4.13;;;21.20;88.90;;;;;;5082417;28;20043;-84
2021/07/22 09:55:33;;;;;;;6.55;4.20;;;21.30;89.40;;;;;;5083078;28;20036;-83
2021/07/22 09:58:04;;;;;;;4.85;3.33;;;21.40;90.20;;;;;;5073463;28;20045;-83
2021/07/22 10:00:32;;;;;;;6.45;3.65;;;21.40;90.00;;;;;;5081975;28;20397;-85
2021/07/22 10:03:01;;;;;;;5.32;3.30;;;21.30;89.20;;;;;;5092097;28;20043;-84
2021/07/22 10:05:33;;;;;;;3.95;3.30;;;21.20;90.20;;;;;;5091574;28;20115;-86
2021/07/22 10:07:59;;;;;;;3.95;3.38;;;21.40;88.80;;;;;;5088855;28;20403;-85
2021/07/22 10:10:27;;;;;;;4.35;3.70;;;21.60;85.80;;;;;;5092343;28;20040;-85
2021/07/22 10:13:00;;;;;;;5.10;3.83;;;21.90;84.70;;;;;;5092923;28;20044;-84
2021/07/22 10:15:28;;;;;;;5.78;3.92;;;21.80;85.00;;;;;;5072111;28;20398;-86
2021/07/22 10:17:58;;;;;;;4.93;4.20;;;21.40;84.80;;;;;;5093352;28;20439;-86
2021/07/22 10:20:29;;;;;;;4.85;3.63;;;21.00;86.50;;;;;;5087942;28;20123;-87
2021/07/22 10:22:56;;;;;;;7.40;3.80;;;20.70;86.80;;;;;;5088247;28;20040;-87
2021/07/22 10:25:22;;;;;;;5.45;3.53;;;20.60;87.50;;;;;;5085842;28;20424;-86
2021/07/22 10:27:49;;;;;;;6.35;3.88;;;20.60;86.70;;;;;;5087267;28;20109;-86
2021/07/22 10:30:20;;;;;;;6.45;3.92;;;20.80;86.90;;;;;;5086473;28;20451;-86
2021/07/22 10:32:49;;;;;;;6.63;3.58;;;21.10;86.80;;;;;;5061944;28;20490;-86
2021/07/22 10:35:21;;;;;;;8.23;3.65;;;21.30;86.60;;;;;;5095985;28;20092;-86
2021/07/22 10:38:17;;;;;;;4.65;3.50;;;21.30;85.50;;;;;;5112675;28;20054;-86
2021/07/22 10:40:43;;;;;;;5.55;3.50;;;21.10;84.90;;;;;;5082154;28;20370;-87
2021/07/22 10:43:31;;;;;;;4.40;3.50;;;20.90;84.60;;;;;;5123645;28;20092;-86
2021/07/22 10:45:56;;;;;;;4.70;3.35;;;21.00;85.90;;;;;;5112555;28;20043;-86
2021/07/22 10:48:26;;;;;;;3.85;3.33;;;21.30;83.60;;;;;;5104718;28;20066;-85
2021/07/22 10:51:14;;;;;;;4.35;3.50;;;21.40;82.40;;;;;;5090469;28;20455;-86
2021/07/22 10:53:53;;;;;;;4.95;3.50;;;21.60;80.70;;;;;;5073926;28;20089;-88
2021/07/22 10:56:41;;;;;;;5.55;3.83;;;21.70;80.00;;;;;;5083829;28;20037;-86
2021/07/22 10:59:07;;;;;;;5.22;3.42;;;21.60;80.10;;;;;;5106681;28;20052;-86
2021/07/22 11:01:41;;;;;;;5.10;3.80;;;21.30;80.10;;;;;;5059603;28;20485;-86
2021/07/22 11:04:31;;;;;;;4.80;3.40;;;21.30;81.20;;;;;;5105822;28;20047;-85
2021/07/22 11:07:18;;;;;;;4.78;3.20;;;21.30;80.50;;;;;;5103015;28;20131;-85
2021/07/22 11:09:50;;;;;;;5.28;3.25;;;21.30;80.70;;;;;;5108344;28;20056;-86
2021/07/22 11:12:36;;;;;;;4.85;3.70;;;21.30;82.50;;;;;;5108237;28;20478;-85
2021/07/22 11:15:10;;;;;;;5.25;3.58;;;21.30;82.10;;;;;;5092195;28;20051;-86
2021/07/22 11:17:58;;;;;;;4.93;3.72;;;21.20;81.40;;;;;;5073020;28;20049;-85
2021/07/22 11:20:32;;;;;;;5.63;3.50;;;21.10;82.10;;;;;;5077027;28;20578;-84
2021/07/22 11:23:11;;;;;;;4.70;3.70;;;21.10;82.30;;;;;;5067945;28;20120;-85
2021/07/22 11:25:45;;;;;;;6.15;3.55;;;21.10;82.60;;;;;;5086716;28;20044;-85
2021/07/22 11:28:13;;;;;;;4.68;3.45;;;21.20;82.90;;;;;;5056198;28;20124;-85
2021/07/22 11:30:39;;;;;;;4.75;3.90;;;21.30;82.40;;;;;;5081164;28;20074;-86
2021/07/22 11:33:17;;;;;;;5.30;3.55;;;21.40;83.40;;;;;;5090020;28;20122;-86
2021/07/22 11:36:00;;;;;;;5.30;3.53;;;21.20;82.60;;;;;;5082521;28;20146;-85
2021/07/22 11:38:26;;;;;;;5.53;3.55;;;21.10;83.40;;;;;;5062529;28;20137;-84
2021/07/22 11:40:53;;;;;;;5.78;3.50;;;21.20;81.60;;;;;;5087409;28;20054;-86
2021/07/22 11:43:43;;;;;;;4.70;3.20;;;21.30;81.30;;;;;;5075078;28;20052;-85
2021/07/22 11:46:11;;;;;;;4.15;3.25;;;21.50;82.00;;;;;;5101038;28;20054;-85
2021/07/22 11:48:38;;;;;;;5.32;3.50;;;21.80;81.70;;;;;;5094901;28;20434;-86
2021/07/22 11:51:09;;;;;;;4.95;3.38;;;22.00;80.50;;;;;;5102672;28;20071;-85
2021/07/22 11:53:36;;;;;;;5.45;3.47;;;22.00;79.80;;;;;;5097314;28;20043;-85
2021/07/22 11:56:18;;;;;;;4.45;3.40;;;22.00;80.90;;;;;;5103923;28;20453;-85
2021/07/22 11:58:49;;;;;;;4.90;3.10;;;22.00;81.20;;;;;;5103860;28;20040;-85
2021/07/22 12:01:15;;;;;;;5.15;3.33;;;22.10;81.00;;;;;;5115752;28;20634;-84
2021/07/22 12:03:46;;;;;;;3.53;2.92;;;22.10;78.30;;;;;;5104530;28;20035;-85
2021/07/22 12:06:13;;;;;;;5.70;3.70;;;21.80;78.10;;;;;;5104571;28;20023;-86
2021/07/22 12:08:39;;;;;;;5.07;3.22;;;21.70;78.20;;;;;;5104214;28;20491;-86
2021/07/22 12:11:05;;;;;;;4.20;3.10;;;21.80;77.30;;;;;;5102653;28;20035;-86
2021/07/22 12:13:51;;;;;;;5.38;3.10;;;21.90;76.90;;;;;;5079522;28;20089;-86
2021/07/22 12:16:24;;;;;;;5.47;3.38;;;21.90;78.20;;;;;;5084000;28;20028;-84
2021/07/22 12:18:54;;;;;;;4.30;3.45;;;21.80;79.60;;;;;;5083298;28;20047;-84
2021/07/22 12:21:28;;;;;;;3.60;3.20;;;21.50;79.00;;;;;;5102155;28;20027;-85
2021/07/22 12:23:54;;;;;;;4.47;3.33;;;21.30;79.20;;;;;;5091377;28;20442;-85
2021/07/22 12:26:21;;;;;;;4.28;3.28;;;21.40;79.00;;;;;;5105987;28;20050;-86
2021/07/22 12:29:08;;;;;;;5.45;3.55;;;21.70;78.10;;;;;;5106935;28;20091;-87
2021/07/22 12:31:39;;;;;;;4.65;3.30;;;21.70;78.30;;;;;;5069562;28;20047;-86
2021/07/22 12:34:06;;;;;;;4.22;2.90;;;21.80;77.90;;;;;;5099684;28;20051;-86
2021/07/22 12:36:33;;;;;;;4.65;2.92;;;22.00;77.00;;;;;;5100958;28;20120;-84
2021/07/22 12:39:14;;;;;;;4.20;3.20;;;22.20;77.20;;;;;;5095997;28;20072;-87
2021/07/22 12:41:41;;;;;;;4.43;3.05;;;22.40;75.80;;;;;;5112720;28;20028;-85
2021/07/22 12:44:07;;;;;;;4.60;3.20;;;22.60;74.50;;;;;;5097829;28;20122;-85
2021/07/22 12:46:33;;;;;;;4.15;3.72;;;22.70;73.10;;;;;;5096417;28;20039;-84
2021/07/22 12:48:59;;;;;;;7.15;3.25;;;22.80;73.50;;;;;;5110122;28;20077;-86
2021/07/22 12:51:26;;;;;;;5.80;3.45;;;22.80;74.30;;;;;;5090970;28;20040;-86
2021/07/22 12:53:52;;;;;;;4.10;3.42;;;23.00;73.70;;;;;;5086816;28;20040;-86
2021/07/22 12:56:19;;;;;;;4.10;3.55;;;23.20;73.60;;;;;;5094905;28;20057;-85
2021/07/22 12:58:50;;;;;;;7.75;3.10;;;23.50;72.10;;;;;;5098774;28;20048;-85